Time;durP1;ratioP1;P1;durP2;ratioP2;P2;SDS_P1;SDS_P2;PMS_P1;PMS_P2;Temp;Humidity;BMP_temperature;BMP_pressure;BME280_temperature;BME280_humidity;BME280_pressure;Samples;Min_cycle;Max_cycle;Signal;HPM_P1;HPM_P2
2023/02/21 02:15:00;;;;;;;27.63;10.10;;;9.00;99.90;;;;;;4986726;28;20076;-71
2023/02/21 02:17:44;;;;;;;28.50;11.90;;;8.90;99.90;;;;;;4985917;28;20034;-71
2023/02/21 02:20:43;;;;;;;28.40;10.15;;;8.90;99.90;;;;;;4970337;28;20039;-72
2023/02/21 02:23:43;;;;;;;28.55;10.65;;;8.90;99.90;;;;;;4999748;28;20046;-72
2023/02/21 02:26:34;;;;;;;32.65;11.38;;;8.90;99.90;;;;;;4988989;28;20096;-73
2023/02/21 02:29:23;;;;;;;34.28;11.90;;;8.90;99.90;;;;;;4993357;28;20057;-72
2023/02/21 02:32:08;;;;;;;30.45;10.85;;;9.00;99.90;;;;;;4986893;28;20540;-73
2023/02/21 02:35:12;;;;;;;25.70;10.32;;;8.90;99.90;;;;;;4960845;28;20182;-71
2023/02/21 02:38:00;;;;;;;27.52;11.20;;;9.00;99.90;;;;;;4955246;28;20077;-72
2023/02/21 02:40:34;;;;;;;32.83;11.57;;;8.90;99.90;;;;;;4991334;28;20033;-72
2023/02/21 02:43:16;;;;;;;30.25;12.27;;;9.00;99.90;;;;;;4993029;28;20079;-72
2023/02/21 02:45:55;;;;;;;29.40;11.52;;;8.90;99.90;;;;;;4973242;28;20132;-73
2023/02/21 02:48:27;;;;;;;31.13;12.05;;;8.90;99.90;;;;;;4955891;28;20035;-73
2023/02/21 02:50:53;;;;;;;34.72;13.15;;;8.90;99.90;;;;;;4983577;28;20027;-73
2023/02/21 02:53:23;;;;;;;33.38;11.95;;;8.90;99.90;;;;;;4971798;28;20425;-72
2023/02/21 02:55:57;;;;;;;27.02;11.70;;;8.90;99.90;;;;;;4980184;28;20172;-72
2023/02/21 02:58:26;;;;;;;31.75;13.27;;;8.90;99.90;;;;;;4986400;28;20049;-72
2023/02/21 03:01:15;;;;;;;38.03;12.68;;;8.90;99.90;;;;;;4958397;28;20089;-72
2023/02/21 03:04:00;;;;;;;34.13;12.55;;;8.90;99.90;;;;;;4975369;28;20050;-73
2023/02/21 03:06:40;;;;;;;35.17;11.52;;;8.90;99.90;;;;;;4975945;28;20042;-73
2023/02/21 03:09:06;;;;;;;38.38;12.27;;;8.90;99.90;;;;;;4950560;28;20034;-72
2023/02/21 03:11:32;;;;;;;31.65;12.10;;;8.90;99.90;;;;;;4951594;28;20492;-73
2023/02/21 03:14:08;;;;;;;31.40;11.95;;;8.90;99.90;;;;;;4970838;28;20046;-72
2023/02/21 03:16:46;;;;;;;29.88;12.90;;;8.90;99.90;;;;;;4973167;28;20042;-71
2023/02/21 03:19:27;;;;;;;35.65;13.32;;;8.90;99.90;;;;;;4974229;28;20038;-71
2023/02/21 03:21:58;;;;;;;29.77;12.68;;;8.90;99.90;;;;;;4982329;28;20030;-71
2023/02/21 03:24:25;;;;;;;38.38;13.18;;;8.90;99.90;;;;;;4983482;28;20045;-73
2023/02/21 03:26:56;;;;;;;28.55;12.13;;;8.90;99.90;;;;;;4975151;28;20125;-73
2023/02/21 03:29:23;;;;;;;32.22;12.05;;;8.90;99.90;;;;;;4978943;28;20041;-73
2023/02/21 03:34:40;;;;;;;34.45;12.05;;;8.90;99.90;;;;;;4970933;28;20105;-71
2023/02/21 03:37:07;;;;;;;24.67;9.75;;;8.90;99.90;;;;;;4978701;28;20116;-73
2023/02/21 03:39:33;;;;;;;35.05;13.80;;;8.90;99.90;;;;;;4976805;28;20027;-71
2023/02/21 03:41:59;;;;;;;32.20;13.60;;;8.90;99.90;;;;;;4974569;28;20069;-73
2023/02/21 03:44:24;;;;;;;39.30;12.32;;;8.90;99.90;;;;;;4983134;28;20050;-71
2023/02/21 03:46:50;;;;;;;32.42;14.00;;;8.90;99.90;;;;;;4979911;28;20042;-72
2023/02/21 03:49:15;;;;;;;34.35;14.55;;;8.90;99.90;;;;;;4970055;28;20497;-72
2023/02/21 03:51:41;;;;;;;34.40;13.70;;;8.90;99.90;;;;;;4975364;28;20177;-73
2023/02/21 03:54:07;;;;;;;31.52;12.52;;;8.90;99.90;;;;;;5005916;28;20055;-72
2023/02/21 03:56:32;;;;;;;31.30;11.98;;;9.00;99.90;;;;;;4974289;28;20036;-73
2023/02/21 03:58:58;;;;;;;30.30;11.85;;;8.90;99.90;;;;;;4986203;28;20042;-72
2023/02/21 04:01:24;;;;;;;37.15;12.75;;;8.90;99.90;;;;;;4968134;28;20039;-71
2023/02/21 04:03:49;;;;;;;33.40;12.63;;;8.90;99.90;;;;;;4974748;28;20113;-73
2023/02/21 04:06:15;;;;;;;30.92;12.77;;;8.90;99.90;;;;;;4968657;28;20046;-74
2023/02/21 04:08:41;;;;;;;34.65;13.02;;;8.90;99.90;;;;;;4983689;28;20034;-73
2023/02/21 04:11:07;;;;;;;34.70;12.90;;;8.90;99.90;;;;;;4978183;28;20065;-72
2023/02/21 04:13:32;;;;;;;35.72;14.27;;;8.90;99.90;;;;;;4980087;28;20101;-73
2023/02/21 04:15:58;;;;;;;36.72;14.43;;;8.90;99.90;;;;;;4979093;28;20035;-72
2023/02/21 04:18:23;;;;;;;36.58;14.65;;;8.90;99.90;;;;;;4979136;28;20415;-72
2023/02/21 04:20:49;;;;;;;44.60;14.68;;;8.90;99.90;;;;;;4974339;28;20066;-73
2023/02/21 04:23:20;;;;;;;32.40;12.98;;;8.90;99.90;;;;;;4986195;28;20042;-72
2023/02/21 04:25:46;;;;;;;34.00;12.43;;;8.90;99.90;;;;;;5004439;28;20403;-72
2023/02/21 04:28:15;;;;;;;39.33;14.48;;;8.90;99.90;;;;;;4977968;28;20074;-72
2023/02/21 04:30:41;;;;;;;40.30;15.85;;;8.90;99.90;;;;;;4975208;28;20038;-72
2023/02/21 04:33:06;;;;;;;36.80;15.20;;;9.00;99.90;;;;;;4979760;28;20042;-72
2023/02/21 04:35:32;;;;;;;50.05;16.30;;;8.90;99.90;;;;;;4981905;28;20026;-72
2023/02/21 04:38:01;;;;;;;47.13;17.25;;;9.00;99.90;;;;;;4971038;28;20031;-73
2023/02/21 04:40:26;;;;;;;47.03;15.02;;;8.90;99.90;;;;;;4979288;28;20039;-72
2023/02/21 04:42:52;;;;;;;48.95;17.25;;;8.90;99.90;;;;;;4977917;28;20372;-72
2023/02/21 04:45:17;;;;;;;40.25;16.17;;;8.90;99.90;;;;;;4973181;28;20102;-72
2023/02/21 04:47:43;;;;;;;40.53;15.30;;;8.90;99.90;;;;;;4978845;28;20146;-72
2023/02/21 04:50:08;;;;;;;47.40;16.58;;;8.90;99.90;;;;;;4984362;28;20035;-74
2023/02/21 04:52:34;;;;;;;48.60;16.25;;;8.90;99.90;;;;;;4974515;28;20031;-72
2023/02/21 04:55:00;;;;;;;49.03;17.45;;;8.90;99.90;;;;;;4981887;28;20026;-74
2023/02/21 04:57:25;;;;;;;54.97;18.05;;;8.90;99.90;;;;;;4985648;28;20054;-72
2023/02/21 04:59:59;;;;;;;46.38;16.30;;;8.90;99.90;;;;;;4973929;28;20031;-72
2023/02/21 05:02:25;;;;;;;47.90;17.92;;;8.90;99.90;;;;;;4979609;28;20026;-72
2023/02/21 05:04:51;;;;;;;46.00;16.58;;;8.80;99.90;;;;;;4982469;28;20395;-73
2023/02/21 05:07:17;;;;;;;46.70;15.90;;;8.90;99.90;;;;;;4980186;28;20035;-72
2023/02/21 05:09:45;;;;;;;42.65;15.50;;;8.90;99.90;;;;;;4970675;28;20530;-72
2023/02/21 05:12:11;;;;;;;48.60;16.90;;;8.90;99.90;;;;;;4988432;28;20046;-74
2023/02/21 05:14:40;;;;;;;50.55;18.40;;;8.90;99.90;;;;;;4993016;28;20023;-72
2023/02/21 05:17:06;;;;;;;52.00;18.35;;;8.90;99.90;;;;;;4979699;28;20037;-72
2023/02/21 05:19:32;;;;;;;45.78;16.35;;;8.90;99.90;;;;;;4997833;28;20569;-73
2023/02/21 05:22:00;;;;;;;44.35;17.52;;;8.90;99.90;;;;;;4980850;28;20074;-71
2023/02/21 05:24:28;;;;;;;50.03;17.17;;;8.90;99.90;;;;;;4976349;28;20149;-72
2023/02/21 05:26:53;;;;;;;52.05;18.35;;;8.90;99.90;;;;;;4980595;28;20114;-73
2023/02/21 05:29:19;;;;;;;52.97;17.40;;;8.80;99.90;;;;;;4971673;28;20126;-73
2023/02/21 05:31:46;;;;;;;54.85;16.80;;;8.90;99.90;;;;;;4975101;28;20045;-73
2023/02/21 05:34:12;;;;;;;50.70;17.42;;;8.90;99.90;;;;;;4977275;28;20034;-72
2023/02/21 05:36:38;;;;;;;53.97;17.65;;;8.80;99.90;;;;;;4977270;28;20042;-72
2023/02/21 05:39:04;;;;;;;52.10;17.50;;;8.90;99.90;;;;;;4976591;28;20406;-75
2023/02/21 05:41:30;;;;;;;58.60;18.58;;;8.80;99.90;;;;;;4985884;28;20041;-72
2023/02/21 05:43:56;;;;;;;54.22;19.00;;;8.80;99.90;;;;;;4975081;28;20038;-72
2023/02/21 05:46:27;;;;;;;53.10;17.83;;;8.80;99.90;;;;;;4973875;28;20085;-71
2023/02/21 05:48:54;;;;;;;64.93;17.40;;;8.80;99.90;;;;;;4969740;28;20026;-73
2023/02/21 05:51:20;;;;;;;52.58;18.48;;;8.80;99.90;;;;;;4969790;28;20512;-73
2023/02/21 05:53:48;;;;;;;53.55;19.33;;;8.80;99.90;;;;;;4974891;28;20070;-74
2023/02/21 05:56:15;;;;;;;55.80;19.15;;;8.80;99.90;;;;;;4977852;28;20570;-72
2023/02/21 05:58:41;;;;;;;52.60;16.77;;;8.80;99.90;;;;;;4971648;28;20031;-72
2023/02/21 06:01:07;;;;;;;54.38;18.35;;;8.80;99.90;;;;;;4970123;28;20042;-73
2023/02/21 06:03:33;;;;;;;50.25;17.45;;;8.80;99.90;;;;;;4976447;28;20039;-72
2023/02/21 06:05:59;;;;;;;59.17;18.65;;;8.80;99.90;;;;;;4971056;28;20067;-72
2023/02/21 06:08:25;;;;;;;49.92;17.60;;;8.80;99.90;;;;;;4968110;28;20057;-70
2023/02/21 06:10:50;;;;;;;55.92;18.83;;;8.90;99.90;;;;;;4968455;28;20043;-71
2023/02/21 06:13:16;;;;;;;49.13;18.60;;;8.90;99.90;;;;;;4970699;28;20049;-72
2023/02/21 06:15:42;;;;;;;56.17;18.90;;;8.90;99.90;;;;;;4967540;28;20483;-72
2023/02/21 06:18:08;;;;;;;51.65;18.23;;;8.90;99.90;;;;;;4964697;28;20038;-72
2023/02/21 06:20:33;;;;;;;45.72;16.80;;;8.90;99.90;;;;;;4967438;28;20031;-72
2023/02/21 06:22:59;;;;;;;54.03;18.67;;;8.90;99.90;;;;;;4966515;28;20380;-72
2023/02/21 06:25:25;;;;;;;46.78;16.52;;;8.90;99.90;;;;;;4969664;28;20083;-73
2023/02/21 06:27:50;;;;;;;51.33;17.83;;;8.90;99.90;;;;;;4966425;28;20031;-72
2023/02/21 06:30:16;;;;;;;44.30;16.02;;;8.90;99.90;;;;;;4967603;28;20050;-71
2023/02/21 06:32:42;;;;;;;56.28;17.23;;;8.90;99.90;;;;;;4967757;28;20090;-73
2023/02/21 06:35:08;;;;;;;49.28;18.17;;;8.90;99.90;;;;;;4967411;28;20047;-72
2023/02/21 06:37:33;;;;;;;56.55;18.48;;;8.90;99.90;;;;;;4968650;28;20591;-72
2023/02/21 06:39:59;;;;;;;47.65;17.80;;;8.90;99.90;;;;;;4965952;28;20085;-71
2023/02/21 06:42:25;;;;;;;58.55;19.33;;;8.90;99.90;;;;;;4966150;28;20062;-71
2023/02/21 06:44:50;;;;;;;51.88;18.65;;;8.90;99.90;;;;;;4968035;28;20057;-73
2023/02/21 06:47:16;;;;;;;55.78;18.75;;;8.80;99.90;;;;;;4966081;28;20050;-73
2023/02/21 06:49:45;;;;;;;58.05;18.17;;;8.90;99.90;;;;;;4967313;28;20101;-72
2023/02/21 06:52:11;;;;;;;53.17;17.35;;;8.90;99.90;;;;;;4979716;28;20065;-72
2023/02/21 06:54:37;;;;;;;59.65;19.58;;;8.90;99.90;;;;;;4966894;28;20070;-73
2023/02/21 06:57:02;;;;;;;61.85;18.67;;;8.90;99.90;;;;;;4967190;28;20376;-72
2023/02/21 06:59:28;;;;;;;61.67;18.58;;;8.90;99.90;;;;;;5007433;28;20073;-72
2023/02/21 07:01:54;;;;;;;51.70;17.25;;;8.90;99.90;;;;;;4977984;28;20380;-73
2023/02/21 07:04:20;;;;;;;47.90;18.85;;;8.90;99.90;;;;;;4971252;28;20066;-73
2023/02/21 07:06:46;;;;;;;58.20;18.67;;;8.90;99.90;;;;;;4971083;28;20121;-73
2023/02/21 07:09:12;;;;;;;50.33;17.77;;;8.90;99.90;;;;;;4976330;28;20038;-72
2023/02/21 07:11:38;;;;;;;52.00;17.90;;;8.90;99.90;;;;;;4973769;28;20046;-72
2023/02/21 07:14:06;;;;;;;50.92;18.05;;;8.90;99.90;;;;;;4984188;28;20053;-72
2023/02/21 07:16:32;;;;;;;57.35;20.02;;;8.90;99.90;;;;;;4981029;28;20534;-73
2023/02/21 07:18:58;;;;;;;61.40;18.95;;;8.90;99.90;;;;;;4973749;28;20166;-72
2023/02/21 07:21:25;;;;;;;51.30;16.80;;;8.90;99.90;;;;;;4971762;28;20038;-72
2023/02/21 07:23:51;;;;;;;54.85;19.33;;;8.90;99.90;;;;;;4970128;28;20444;-73
2023/02/21 07:26:16;;;;;;;64.25;19.42;;;8.90;99.90;;;;;;4981804;28;20109;-74
2023/02/21 07:28:42;;;;;;;57.88;19.63;;;8.90;99.90;;;;;;4973960;28;20053;-72
2023/02/21 07:31:09;;;;;;;48.67;17.65;;;8.90;99.90;;;;;;4968891;28;20506;-72
2023/02/21 07:33:35;;;;;;;56.92;20.27;;;9.00;99.90;;;;;;4979554;28;20150;-72
2023/02/21 07:36:01;;;;;;;50.45;20.00;;;8.90;99.90;;;;;;4968521;28;20500;-73
2023/02/21 07:38:29;;;;;;;57.30;19.08;;;8.90;99.90;;;;;;4966109;28;20500;-73
2023/02/21 07:40:59;;;;;;;59.50;20.25;;;9.00;99.90;;;;;;4966792;28;20102;-73
2023/02/21 07:43:26;;;;;;;61.88;20.33;;;9.00;99.90;;;;;;4968352;28;20519;-72
2023/02/21 07:45:51;;;;;;;55.00;18.85;;;9.00;99.90;;;;;;4971298;28;20070;-73
2023/02/21 07:48:17;;;;;;;47.42;18.08;;;9.00;99.90;;;;;;4967999;28;20117;-73
2023/02/21 07:50:44;;;;;;;55.97;19.38;;;9.00;99.90;;;;;;4968783;28;20089;-73
2023/02/21 07:53:11;;;;;;;73.95;21.85;;;9.00;99.90;;;;;;4970113;28;20035;-72
2023/02/21 07:55:36;;;;;;;60.55;20.38;;;9.00;99.90;;;;;;4974460;28;20171;-73
2023/02/21 07:58:02;;;;;;;61.03;19.15;;;9.00;99.90;;;;;;4976894;28;20116;-72
2023/02/21 08:00:28;;;;;;;61.60;18.20;;;9.00;99.90;;;;;;4973525;28;20042;-72
2023/02/21 08:02:53;;;;;;;55.45;18.40;;;9.00;99.90;;;;;;4969651;28;20042;-73
2023/02/21 08:05:20;;;;;;;59.78;21.42;;;9.00;99.90;;;;;;4972783;28;20459;-73
2023/02/21 08:07:45;;;;;;;64.22;19.80;;;9.00;99.90;;;;;;4973425;28;20027;-74
2023/02/21 08:10:13;;;;;;;67.22;20.80;;;9.00;99.90;;;;;;4980545;28;20372;-72
2023/02/21 08:12:39;;;;;;;60.03;20.13;;;9.00;99.90;;;;;;4985151;28;20031;-72
2023/02/21 08:15:05;;;;;;;66.32;19.45;;;9.00;99.90;;;;;;4979911;28;20122;-73
2023/02/21 08:17:31;;;;;;;55.05;19.15;;;9.10;99.90;;;;;;4976168;28;20475;-72
2023/02/21 08:19:56;;;;;;;62.40;19.40;;;9.00;99.90;;;;;;4973858;28;20034;-72
2023/02/21 08:22:22;;;;;;;64.43;21.50;;;9.00;99.90;;;;;;4976755;28;20045;-72
2023/02/21 08:24:49;;;;;;;64.60;19.60;;;9.10;99.90;;;;;;4979652;28;20046;-73
2023/02/21 08:27:15;;;;;;;64.90;20.52;;;9.10;99.90;;;;;;4971140;28;20117;-72
2023/02/21 08:29:41;;;;;;;68.80;20.20;;;9.10;99.90;;;;;;4972516;28;20037;-72
2023/02/21 08:32:07;;;;;;;60.65;19.60;;;9.10;99.90;;;;;;4969691;28;20042;-73
2023/02/21 08:34:33;;;;;;;54.60;18.27;;;9.10;99.90;;;;;;4981291;28;20039;-72
2023/02/21 08:36:59;;;;;;;69.22;20.13;;;9.00;99.90;;;;;;4979277;28;20495;-73
2023/02/21 08:39:28;;;;;;;68.25;20.40;;;9.10;99.90;;;;;;4971631;28;20047;-72
2023/02/21 08:41:55;;;;;;;64.85;20.63;;;9.00;99.90;;;;;;4971488;28;20635;-73
2023/02/21 08:44:21;;;;;;;71.82;20.17;;;9.00;99.90;;;;;;4968915;28;20475;-72
2023/02/21 08:46:47;;;;;;;61.75;21.00;;;9.00;99.90;;;;;;4979317;28;20491;-73
2023/02/21 08:49:12;;;;;;;66.15;20.35;;;9.10;99.90;;;;;;4970838;28;20114;-73
2023/02/21 08:51:39;;;;;;;60.22;19.77;;;9.10;99.90;;;;;;4971368;28;20042;-72
2023/02/21 08:54:05;;;;;;;65.90;19.27;;;9.10;99.90;;;;;;4971321;28;20035;-72
2023/02/21 08:56:31;;;;;;;68.45;22.42;;;9.10;99.90;;;;;;4991393;28;20030;-73
2023/02/21 08:58:57;;;;;;;73.18;20.52;;;9.10;99.90;;;;;;4975802;28;20034;-72
2023/02/21 09:01:23;;;;;;;67.25;20.77;;;9.10;99.90;;;;;;4979420;28;20039;-73
2023/02/21 09:03:49;;;;;;;66.07;22.27;;;9.10;99.90;;;;;;4975503;28;20679;-73
2023/02/21 09:06:16;;;;;;;67.43;21.38;;;9.10;99.90;;;;;;4971951;28;20057;-73
2023/02/21 09:08:42;;;;;;;66.38;20.35;;;9.10;99.90;;;;;;4971072;28;20117;-72
2023/02/21 09:11:07;;;;;;;67.10;21.73;;;9.10;99.90;;;;;;4974485;28;20563;-73
2023/02/21 09:13:33;;;;;;;77.22;22.73;;;9.10;99.90;;;;;;4971471;28;20035;-73
2023/02/21 09:16:00;;;;;;;74.78;22.00;;;9.10;99.90;;;;;;4969710;28;20031;-73
2023/02/21 09:18:27;;;;;;;67.45;20.27;;;9.10;99.90;;;;;;4981906;28;20027;-71
2023/02/21 09:20:56;;;;;;;71.72;21.58;;;9.10;99.90;;;;;;4978796;28;20506;-74
2023/02/21 09:23:23;;;;;;;77.75;22.23;;;9.10;99.90;;;;;;5004762;28;20042;-72
2023/02/21 09:25:49;;;;;;;77.85;22.85;;;9.10;99.90;;;;;;4987099;28;20027;-73
2023/02/21 09:28:16;;;;;;;84.10;22.48;;;9.10;99.90;;;;;;4970699;28;20046;-72
2023/02/21 09:30:45;;;;;;;73.65;21.67;;;9.20;99.90;;;;;;4971153;28;20043;-72
2023/02/21 09:33:14;;;;;;;74.07;21.60;;;9.20;99.90;;;;;;4978463;28;20522;-73
2023/02/21 09:35:39;;;;;;;73.75;21.30;;;9.20;99.90;;;;;;4978693;28;20038;-73
2023/02/21 09:38:06;;;;;;;66.55;20.60;;;9.20;99.90;;;;;;4978511;28;20043;-74
2023/02/21 09:40:36;;;;;;;83.00;22.75;;;9.20;99.90;;;;;;4966891;28;20032;-72
2023/02/21 09:43:04;;;;;;;79.88;21.55;;;9.20;99.90;;;;;;4974584;28;20046;-73
2023/02/21 09:45:32;;;;;;;64.93;21.13;;;9.20;99.90;;;;;;4968953;28;20031;-72
2023/02/21 09:48:05;;;;;;;72.47;21.02;;;9.20;99.90;;;;;;4969087;28;20031;-73
2023/02/21 09:50:38;;;;;;;80.30;22.80;;;9.20;99.90;;;;;;4968897;28;20027;-72
2023/02/21 09:53:05;;;;;;;61.28;19.98;;;9.20;99.90;;;;;;4970084;28;20031;-74
2023/02/21 09:55:36;;;;;;;71.95;21.33;;;9.20;99.90;;;;;;4970065;28;20511;-73
2023/02/21 09:58:02;;;;;;;68.82;20.23;;;9.30;99.90;;;;;;4970019;28;20058;-72
2023/02/21 10:00:36;;;;;;;73.65;21.73;;;9.30;99.90;;;;;;4968202;28;20105;-73
2023/02/21 10:03:52;;;;;;;76.75;21.00;;;9.30;99.90;;;;;;4977694;28;20037;-73
2023/02/21 10:06:27;;;;;;;70.00;20.42;;;9.30;99.90;;;;;;4946701;28;20105;-72
2023/02/21 10:09:39;;;;;;;65.10;19.77;;;9.40;99.90;;;;;;4969604;28;20031;-73
2023/02/21 10:12:26;;;;;;;69.53;20.02;;;9.40;99.90;;;;;;4977107;28;20089;-72
2023/02/21 10:15:18;;;;;;;70.97;21.05;;;9.40;99.90;;;;;;4969491;28;20054;-73
2023/02/21 10:18:11;;;;;;;67.13;18.30;;;9.50;99.90;;;;;;4977775;28;20031;-72
2023/02/21 10:20:58;;;;;;;74.45;21.35;;;9.50;99.90;;;;;;4962770;28;20460;-72
2023/02/21 10:23:33;;;;;;;63.80;20.10;;;9.50;99.90;;;;;;4968752;28;20054;-72
2023/02/21 10:26:08;;;;;;;55.47;19.02;;;9.50;99.90;;;;;;4974855;28;20031;-72
2023/02/21 10:28:34;;;;;;;69.82;20.27;;;9.50;99.90;;;;;;4968051;28;20038;-73
2023/02/21 10:31:06;;;;;;;62.15;18.88;;;9.60;99.90;;;;;;4969309;28;20038;-73
2023/02/21 10:33:35;;;;;;;70.68;21.23;;;9.60;99.90;;;;;;4965994;28;20130;-72
2023/02/21 10:36:00;;;;;;;62.63;19.52;;;9.70;99.90;;;;;;4969060;28;20034;-72
2023/02/21 10:38:26;;;;;;;58.47;19.35;;;9.70;99.90;;;;;;4970559;28;20042;-72
2023/02/21 10:40:57;;;;;;;59.60;19.50;;;9.80;99.90;;;;;;4981932;28;20034;-73
2023/02/21 10:43:35;;;;;;;60.30;19.05;;;9.80;99.90;;;;;;4975718;28;20047;-73
2023/02/21 10:46:06;;;;;;;68.38;19.35;;;9.80;99.90;;;;;;4963897;28;20822;-73
2023/02/21 10:48:36;;;;;;;62.42;20.77;;;9.90;99.90;;;;;;4990909;28;20060;-72
2023/02/21 10:51:09;;;;;;;65.40;19.58;;;9.90;99.90;;;;;;4992506;28;20027;-73
2023/02/21 10:53:39;;;;;;;64.80;20.15;;;9.80;99.90;;;;;;4973798;28;20034;-73
2023/02/21 10:56:14;;;;;;;66.15;19.65;;;9.80;99.90;;;;;;4972714;28;20041;-72
2023/02/21 10:58:44;;;;;;;61.25;19.42;;;9.80;99.90;;;;;;4994593;28;20042;-72
2023/02/21 11:01:17;;;;;;;64.82;18.73;;;9.80;99.90;;;;;;4972918;28;20046;-74
2023/02/21 11:03:47;;;;;;;70.05;20.60;;;9.80;99.90;;;;;;4969105;28;20047;-72
2023/02/21 11:06:36;;;;;;;75.90;19.98;;;9.80;99.90;;;;;;4968170;28;20035;-73
2023/02/21 11:09:22;;;;;;;68.68;18.98;;;9.80;99.90;;;;;;4972934;28;20035;-73
2023/02/21 11:11:58;;;;;;;69.00;20.55;;;9.80;99.90;;;;;;4972836;28;20042;-72
2023/02/21 11:14:25;;;;;;;66.10;18.75;;;9.80;99.90;;;;;;4972035;28;20593;-73
2023/02/21 11:17:18;;;;;;;82.97;22.70;;;9.80;99.90;;;;;;4975380;28;20034;-75
2023/02/21 11:20:16;;;;;;;61.53;19.15;;;9.80;99.90;;;;;;4970135;28;20394;-72
2023/02/21 11:22:44;;;;;;;67.97;19.92;;;9.80;99.90;;;;;;4970351;28;20603;-73
2023/02/21 11:25:18;;;;;;;65.82;21.48;;;9.70;99.90;;;;;;4970990;28;20388;-73
2023/02/21 11:27:56;;;;;;;72.15;21.33;;;9.70;99.90;;;;;;4981368;28;20050;-73
2023/02/21 11:30:22;;;;;;;63.88;19.58;;;9.70;99.90;;;;;;4968318;28;20565;-72
2023/02/21 11:32:51;;;;;;;65.97;18.55;;;9.70;99.90;;;;;;4981472;28;20145;-73
2023/02/21 11:35:34;;;;;;;63.88;19.75;;;9.60;99.90;;;;;;4965921;28;20030;-73
2023/02/21 11:38:03;;;;;;;66.07;18.90;;;9.70;99.90;;;;;;4979927;28;20045;-72
2023/02/21 11:40:31;;;;;;;60.95;19.67;;;9.70;99.90;;;;;;4974524;28;20054;-72
2023/02/21 11:43:25;;;;;;;58.75;17.95;;;9.70;99.90;;;;;;5002667;28;20377;-72
2023/02/21 11:46:03;;;;;;;64.57;19.08;;;9.70;99.90;;;;;;5000391;28;20121;-73
2023/02/21 11:48:47;;;;;;;53.38;19.08;;;9.70;99.90;;;;;;4984530;28;20031;-73
2023/02/21 11:51:35;;;;;;;68.88;19.55;;;9.80;99.90;;;;;;5004109;28;20035;-71
2023/02/21 11:54:03;;;;;;;58.70;19.20;;;9.80;99.90;;;;;;4971465;28;20035;-73
2023/02/21 11:56:34;;;;;;;58.50;18.52;;;9.70;99.90;;;;;;4969665;28;20038;-72
2023/02/21 11:59:19;;;;;;;55.97;18.20;;;9.70;99.90;;;;;;4974394;28;20101;-72
2023/02/21 12:01:45;;;;;;;52.30;17.75;;;9.80;99.90;;;;;;4981815;28;20117;-73
2023/02/21 12:04:29;;;;;;;51.97;16.95;;;9.70;99.90;;;;;;4969699;28;20043;-72
2023/02/21 12:07:13;;;;;;;51.00;16.48;;;9.80;99.90;;;;;;4966945;28;20039;-72
2023/02/21 12:10:04;;;;;;;50.20;17.92;;;9.80;99.90;;;;;;5002318;28;20045;-73
2023/02/21 12:12:56;;;;;;;39.95;15.48;;;9.80;99.90;;;;;;4983996;28;20038;-73
2023/02/21 12:15:48;;;;;;;46.80;15.30;;;9.80;99.90;;;;;;4971508;28;20039;-72
2023/02/21 12:18:39;;;;;;;36.47;13.73;;;9.80;99.90;;;;;;4971594;28;20035;-72
2023/02/21 12:21:11;;;;;;;41.45;15.80;;;9.90;99.90;;;;;;4967001;28;20030;-73
2023/02/21 12:24:06;;;;;;;36.97;13.90;;;9.80;99.90;;;;;;4993804;28;20137;-72
2023/02/21 12:26:53;;;;;;;37.22;13.27;;;9.80;99.90;;;;;;4978886;28;20035;-72
2023/02/21 12:29:51;;;;;;;31.25;11.25;;;9.80;99.90;;;;;;4986807;28;20410;-72
2023/02/21 12:32:38;;;;;;;33.00;11.10;;;9.90;99.90;;;;;;4948083;28;20693;-71
2023/02/21 12:35:22;;;;;;;28.52;9.60;;;9.90;99.90;;;;;;5012548;28;20042;-72
2023/02/21 12:38:03;;;;;;;23.50;9.38;;;9.90;99.90;;;;;;4990574;28;20030;-73
2023/02/21 12:41:13;;;;;;;28.30;9.05;;;9.90;99.90;;;;;;4996147;28;20386;-72
2023/02/21 12:44:01;;;;;;;18.43;7.57;;;9.80;99.90;;;;;;4957328;28;20038;-71
2023/02/21 12:46:37;;;;;;;19.90;7.60;;;9.80;99.90;;;;;;4997189;28;20084;-73
2023/02/21 12:49:05;;;;;;;23.52;7.47;;;9.80;99.90;;;;;;4994952;28;20038;-72
2023/02/21 12:51:37;;;;;;;23.33;7.50;;;9.80;99.90;;;;;;4974972;28;20048;-73
2023/02/21 12:54:09;;;;;;;26.20;8.68;;;9.80;99.90;;;;;;4996784;28;20058;-73
2023/02/21 12:56:40;;;;;;;21.30;7.93;;;9.90;99.90;;;;;;4998564;28;20053;-72
2023/02/21 12:59:32;;;;;;;23.52;8.32;;;9.90;99.90;;;;;;4989831;28;20112;-74
2023/02/21 13:02:11;;;;;;;19.40;7.28;;;9.90;99.90;;;;;;4970752;28;20038;-72
2023/02/21 13:04:54;;;;;;;17.17;6.60;;;9.90;99.90;;;;;;4982995;28;20644;-72
2023/02/21 13:07:33;;;;;;;22.73;8.57;;;9.90;99.90;;;;;;4989937;28;20031;-72
2023/02/21 13:10:14;;;;;;;18.02;6.82;;;10.00;99.90;;;;;;4992400;28;20313;-72
2023/02/21 13:13:10;;;;;;;23.33;7.55;;;10.00;99.90;;;;;;4994761;28;20041;-72
2023/02/21 13:15:38;;;;;;;22.35;8.65;;;10.00;99.90;;;;;;4985388;28;20035;-72
2023/02/21 13:18:15;;;;;;;25.02;9.15;;;10.00;99.90;;;;;;4995114;28;20548;-72
2023/02/21 13:20:50;;;;;;;26.00;8.70;;;10.00;99.90;;;;;;4983575;28;20082;-72
2023/02/21 13:26:49;;;;;;;22.40;9.35;;;10.10;99.90;;;;;;4995933;28;20061;-73
2023/02/21 13:29:21;;;;;;;23.65;8.65;;;10.00;99.90;;;;;;5003760;28;20045;-71
2023/02/21 13:31:49;;;;;;;15.98;6.30;;;10.10;99.90;;;;;;4997965;28;20046;-75
2023/02/21 13:34:20;;;;;;;13.73;6.00;;;10.10;99.90;;;;;;4987606;28;20038;-72
2023/02/21 13:36:46;;;;;;;11.77;4.90;;;10.20;99.90;;;;;;4992220;28;20042;-73
2023/02/21 13:39:20;;;;;;;11.55;4.55;;;10.10;99.90;;;;;;4989577;28;20042;-74
2023/02/21 13:41:56;;;;;;;8.82;3.83;;;10.10;99.90;;;;;;4989267;28;20038;-74
2023/02/21 13:44:30;;;;;;;9.30;4.13;;;10.10;99.90;;;;;;4980645;28;20814;-73
2023/02/21 13:47:09;;;;;;;13.73;4.53;;;10.10;99.90;;;;;;4984811;28;20062;-73
2023/02/21 13:49:52;;;;;;;8.32;3.75;;;10.10;99.90;;;;;;4991544;28;20061;-71
2023/02/21 13:52:21;;;;;;;7.47;3.67;;;10.10;99.90;;;;;;4988679;28;20038;-72
2023/02/21 13:55:15;;;;;;;9.77;4.15;;;10.10;99.90;;;;;;4989227;28;20391;-73
2023/02/21 13:57:45;;;;;;;8.25;3.65;;;10.00;99.90;;;;;;4971817;28;20503;-73
2023/02/21 14:00:26;;;;;;;7.93;3.63;;;10.10;99.90;;;;;;4996677;28;20038;-73
2023/02/21 14:02:56;;;;;;;7.90;3.67;;;10.00;99.90;;;;;;4970988;28;20286;-74
2023/02/21 14:05:22;;;;;;;9.95;3.88;;;10.00;99.90;;;;;;4997347;28;20568;-73
2023/02/21 14:07:55;;;;;;;9.98;3.70;;;10.00;99.90;;;;;;5000303;28;20030;-73
2023/02/21 14:10:37;;;;;;;8.80;3.75;;;10.00;99.90;;;;;;4995827;28;20042;-72
2023/02/21 14:13:20;;;;;;;9.98;4.10;;;9.90;99.90;;;;;;4989854;28;20049;-74
2023/02/21 14:15:48;;;;;;;9.50;3.85;;;9.90;99.90;;;;;;4990772;28;20046;-72
2023/02/21 14:18:38;;;;;;;8.10;3.47;;;9.80;99.90;;;;;;4989687;28;20088;-72
2023/02/21 14:21:27;;;;;;;9.60;3.70;;;9.90;99.90;;;;;;4990160;28;20085;-73
2023/02/21 14:24:00;;;;;;;8.25;3.17;;;9.90;99.90;;;;;;4978650;28;20053;-73
2023/02/21 14:26:50;;;;;;;7.30;3.28;;;9.80;99.90;;;;;;4973756;28;20039;-72
2023/02/21 14:29:43;;;;;;;8.18;3.58;;;9.90;99.90;;;;;;4969933;28;20066;-72
2023/02/21 14:32:09;;;;;;;9.35;3.78;;;9.90;99.90;;;;;;4983061;28;20154;-73
2023/02/21 14:34:46;;;;;;;7.63;3.22;;;9.80;99.90;;;;;;4968487;28;20125;-73
2023/02/21 14:37:15;;;;;;;6.68;3.60;;;9.80;99.90;;;;;;4995305;28;20490;-71
2023/02/21 14:39:47;;;;;;;8.02;3.67;;;9.70;99.90;;;;;;4967467;28;20459;-73
2023/02/21 14:42:50;;;;;;;8.90;3.50;;;9.70;99.90;;;;;;4968108;28;20104;-73
2023/02/21 14:45:41;;;;;;;9.07;4.10;;;9.70;99.90;;;;;;4969010;28;20047;-73
2023/02/21 14:48:09;;;;;;;7.15;2.92;;;9.70;99.90;;;;;;4969467;28;20042;-73
2023/02/21 14:51:03;;;;;;;11.23;4.15;;;9.60;99.90;;;;;;4970665;28;20090;-72
2023/02/21 14:53:38;;;;;;;9.15;3.22;;;9.60;99.90;;;;;;4971182;28;20038;-72
2023/02/21 14:56:34;;;;;;;10.82;3.55;;;9.60;99.90;;;;;;4967820;28;20050;-72
2023/02/21 14:59:36;;;;;;;8.70;3.30;;;9.60;99.90;;;;;;4963823;28;20121;-72
2023/02/21 15:02:28;;;;;;;7.75;3.15;;;9.60;99.90;;;;;;4964760;28;20070;-72
2023/02/21 15:05:01;;;;;;;8.20;3.45;;;9.60;99.90;;;;;;4997458;28;20038;-72
2023/02/21 15:07:33;;;;;;;5.30;2.72;;;9.60;99.90;;;;;;4966705;28;20049;-72
2023/02/21 15:10:21;;;;;;;8.00;3.28;;;9.60;99.90;;;;;;4966639;28;20109;-72
2023/02/21 15:12:54;;;;;;;9.07;3.38;;;9.50;99.90;;;;;;4965998;28;20404;-74
2023/02/21 15:15:41;;;;;;;11.05;3.47;;;9.50;99.90;;;;;;4964012;28;20097;-73
2023/02/21 15:18:10;;;;;;;10.63;3.20;;;9.50;99.90;;;;;;4968263;28;20049;-73
2023/02/21 15:20:41;;;;;;;8.77;3.85;;;9.50;99.90;;;;;;4966442;28;20035;-72
2023/02/21 15:23:18;;;;;;;9.60;4.05;;;9.40;99.90;;;;;;4965535;28;20105;-72
2023/02/21 15:25:51;;;;;;;9.23;3.30;;;9.40;99.90;;;;;;5001525;28;20115;-73